sensor_id;sensor_type;location;lat;lon;timestamp;P1;durP1;ratioP1;P2;durP2;ratioP2
22929;SDS011;11630;42.660;23.292;2024-03-08T00:01:19;10.60;;;6.73;;
22929;SDS011;11630;42.660;23.292;2024-03-08T00:03:49;8.27;;;6.27;;
22929;SDS011;11630;42.660;23.292;2024-03-08T00:06:20;7.13;;;6.13;;
22929;SDS011;11630;42.660;23.292;2024-03-08T00:08:52;7.00;;;5.80;;
22929;SDS011;11630;42.660;23.292;2024-03-08T00:11:23;10.03;;;7.37;;
22929;SDS011;11630;42.660;23.292;2024-03-08T00:13:54;8.50;;;5.10;;
22929;SDS011;11630;42.660;23.292;2024-03-08T00:16:25;7.00;;;5.33;;
22929;SDS011;11630;42.660;23.292;2024-03-08T00:18:56;4.90;;;4.40;;
22929;SDS011;11630;42.660;23.292;2024-03-08T00:21:27;4.77;;;3.87;;
22929;SDS011;11630;42.660;23.292;2024-03-08T00:23:58;5.60;;;4.13;;
22929;SDS011;11630;42.660;23.292;2024-03-08T00:26:29;6.27;;;4.90;;
22929;SDS011;11630;42.660;23.292;2024-03-08T00:29:01;5.67;;;4.67;;
22929;SDS011;11630;42.660;23.292;2024-03-08T00:31:31;6.20;;;4.60;;
22929;SDS011;11630;42.660;23.292;2024-03-08T00:34:02;4.83;;;4.10;;
22929;SDS011;11630;42.660;23.292;2024-03-08T00:36:33;5.23;;;4.07;;
22929;SDS011;11630;42.660;23.292;2024-03-08T00:39:04;5.87;;;4.40;;
22929;SDS011;11630;42.660;23.292;2024-03-08T00:41:35;6.13;;;4.03;;
22929;SDS011;11630;42.660;23.292;2024-03-08T00:44:07;4.43;;;3.83;;
22929;SDS011;11630;42.660;23.292;2024-03-08T00:46:38;6.40;;;5.00;;
22929;SDS011;11630;42.660;23.292;2024-03-08T00:49:09;5.10;;;4.60;;
22929;SDS011;11630;42.660;23.292;2024-03-08T00:51:40;6.00;;;4.13;;
22929;SDS011;11630;42.660;23.292;2024-03-08T00:54:11;4.10;;;3.70;;
22929;SDS011;11630;42.660;23.292;2024-03-08T00:56:42;6.13;;;3.23;;
22929;SDS011;11630;42.660;23.292;2024-03-08T00:59:13;4.53;;;3.70;;
22929;SDS011;11630;42.660;23.292;2024-03-08T01:01:44;3.70;;;2.77;;
22929;SDS011;11630;42.660;23.292;2024-03-08T01:04:15;3.40;;;3.10;;
22929;SDS011;11630;42.660;23.292;2024-03-08T01:06:46;9.73;;;3.10;;
22929;SDS011;11630;42.660;23.292;2024-03-08T01:09:17;3.73;;;3.33;;
22929;SDS011;11630;42.660;23.292;2024-03-08T01:11:48;3.33;;;3.03;;
22929;SDS011;11630;42.660;23.292;2024-03-08T01:14:21;3.33;;;3.03;;
22929;SDS011;11630;42.660;23.292;2024-03-08T01:16:52;3.17;;;2.97;;
22929;SDS011;11630;42.660;23.292;2024-03-08T01:19:22;3.57;;;2.87;;
22929;SDS011;11630;42.660;23.292;2024-03-08T01:21:54;3.47;;;3.03;;
22929;SDS011;11630;42.660;23.292;2024-03-08T01:24:25;4.37;;;3.80;;
22929;SDS011;11630;42.660;23.292;2024-03-08T01:26:55;3.93;;;3.10;;
22929;SDS011;11630;42.660;23.292;2024-03-08T01:29:26;3.40;;;3.10;;
22929;SDS011;11630;42.660;23.292;2024-03-08T01:31:57;3.00;;;2.70;;
22929;SDS011;11630;42.660;23.292;2024-03-08T01:34:30;3.20;;;2.90;;
22929;SDS011;11630;42.660;23.292;2024-03-08T01:37:01;3.50;;;2.77;;
22929;SDS011;11630;42.660;23.292;2024-03-08T01:39:32;3.43;;;2.90;;
22929;SDS011;11630;42.660;23.292;2024-03-08T01:42:03;4.57;;;2.90;;
22929;SDS011;11630;42.660;23.292;2024-03-08T01:44:33;4.17;;;3.37;;
22929;SDS011;11630;42.660;23.292;2024-03-08T01:47:05;3.83;;;3.53;;
22929;SDS011;11630;42.660;23.292;2024-03-08T01:49:36;3.00;;;2.80;;
22929;SDS011;11630;42.660;23.292;2024-03-08T01:52:06;3.30;;;2.67;;
22929;SDS011;11630;42.660;23.292;2024-03-08T01:54:37;2.50;;;2.30;;
22929;SDS011;11630;42.660;23.292;2024-03-08T01:57:08;2.67;;;2.40;;
22929;SDS011;11630;42.660;23.292;2024-03-08T01:59:39;2.23;;;2.13;;
22929;SDS011;11630;42.660;23.292;2024-03-08T02:02:10;2.23;;;2.13;;
22929;SDS011;11630;42.660;23.292;2024-03-08T02:04:42;2.80;;;2.47;;
22929;SDS011;11630;42.660;23.292;2024-03-08T02:07:13;2.63;;;2.43;;
22929;SDS011;11630;42.660;23.292;2024-03-08T02:09:44;2.27;;;2.17;;
22929;SDS011;11630;42.660;23.292;2024-03-08T02:12:15;3.10;;;2.83;;
22929;SDS011;11630;42.660;23.292;2024-03-08T02:14:46;2.70;;;2.50;;
22929;SDS011;11630;42.660;23.292;2024-03-08T02:17:16;2.77;;;2.57;;
22929;SDS011;11630;42.660;23.292;2024-03-08T02:19:47;2.57;;;2.10;;
22929;SDS011;11630;42.660;23.292;2024-03-08T02:22:18;2.37;;;2.17;;
22929;SDS011;11630;42.660;23.292;2024-03-08T02:24:49;4.83;;;3.60;;
22929;SDS011;11630;42.660;23.292;2024-03-08T02:27:24;5.47;;;4.97;;
22929;SDS011;11630;42.660;23.292;2024-03-08T02:29:55;5.67;;;3.87;;
22929;SDS011;11630;42.660;23.292;2024-03-08T02:32:26;2.33;;;2.13;;
22929;SDS011;11630;42.660;23.292;2024-03-08T02:34:57;3.23;;;2.83;;
22929;SDS011;11630;42.660;23.292;2024-03-08T02:37:28;2.53;;;2.33;;
22929;SDS011;11630;42.660;23.292;2024-03-08T02:39:59;3.40;;;3.10;;
22929;SDS011;11630;42.660;23.292;2024-03-08T02:42:30;2.80;;;2.60;;
22929;SDS011;11630;42.660;23.292;2024-03-08T02:45:01;3.30;;;2.60;;
22929;SDS011;11630;42.660;23.292;2024-03-08T02:47:33;3.20;;;2.90;;
22929;SDS011;11630;42.660;23.292;2024-03-08T02:50:04;3.23;;;3.03;;
22929;SDS011;11630;42.660;23.292;2024-03-08T02:52:36;3.10;;;2.70;;
22929;SDS011;11630;42.660;23.292;2024-03-08T02:55:07;3.43;;;3.13;;
22929;SDS011;11630;42.660;23.292;2024-03-08T02:57:38;2.80;;;2.60;;
22929;SDS011;11630;42.660;23.292;2024-03-08T03:00:09;2.90;;;2.70;;
22929;SDS011;11630;42.660;23.292;2024-03-08T03:02:41;2.70;;;2.50;;
22929;SDS011;11630;42.660;23.292;2024-03-08T03:05:11;2.93;;;2.70;;
22929;SDS011;11630;42.660;23.292;2024-03-08T03:07:42;2.87;;;2.67;;
22929;SDS011;11630;42.660;23.292;2024-03-08T03:10:13;2.87;;;2.67;;
22929;SDS011;11630;42.660;23.292;2024-03-08T03:12:47;3.07;;;2.87;;
22929;SDS011;11630;42.660;23.292;2024-03-08T03:15:17;2.37;;;2.27;;
22929;SDS011;11630;42.660;23.292;2024-03-08T03:17:47;2.33;;;2.17;;
22929;SDS011;11630;42.660;23.292;2024-03-08T03:20:19;2.20;;;2.03;;
22929;SDS011;11630;42.660;23.292;2024-03-08T03:22:53;2.00;;;1.90;;
22929;SDS011;11630;42.660;23.292;2024-03-08T03:25:24;3.20;;;2.80;;
22929;SDS011;11630;42.660;23.292;2024-03-08T03:27:55;1.97;;;1.67;;
22929;SDS011;11630;42.660;23.292;2024-03-08T03:30:25;1.70;;;1.53;;
22929;SDS011;11630;42.660;23.292;2024-03-08T03:32:55;1.80;;;1.70;;
22929;SDS011;11630;42.660;23.292;2024-03-08T03:35:27;5.17;;;1.67;;
22929;SDS011;11630;42.660;23.292;2024-03-08T03:37:58;2.27;;;1.90;;
22929;SDS011;11630;42.660;23.292;2024-03-08T03:40:29;3.10;;;2.00;;
22929;SDS011;11630;42.660;23.292;2024-03-08T03:43:01;2.50;;;2.30;;
22929;SDS011;11630;42.660;23.292;2024-03-08T03:45:31;2.57;;;2.23;;
22929;SDS011;11630;42.660;23.292;2024-03-08T03:48:08;3.47;;;3.00;;
22929;SDS011;11630;42.660;23.292;2024-03-08T03:50:38;3.43;;;2.53;;
22929;SDS011;11630;42.660;23.292;2024-03-08T03:53:15;3.27;;;2.50;;
22929;SDS011;11630;42.660;23.292;2024-03-08T03:55:45;4.97;;;2.33;;
22929;SDS011;11630;42.660;23.292;2024-03-08T03:58:15;2.77;;;2.57;;
22929;SDS011;11630;42.660;23.292;2024-03-08T04:00:47;3.03;;;2.83;;
22929;SDS011;11630;42.660;23.292;2024-03-08T04:03:18;3.47;;;2.80;;
22929;SDS011;11630;42.660;23.292;2024-03-08T04:05:49;2.10;;;1.90;;
22929;SDS011;11630;42.660;23.292;2024-03-08T04:08:19;1.77;;;1.67;;
22929;SDS011;11630;42.660;23.292;2024-03-08T04:10:50;1.53;;;1.43;;
22929;SDS011;11630;42.660;23.292;2024-03-08T04:13:21;1.87;;;1.70;;
22929;SDS011;11630;42.660;23.292;2024-03-08T04:15:52;1.50;;;1.40;;
22929;SDS011;11630;42.660;23.292;2024-03-08T04:18:23;1.63;;;1.53;;
22929;SDS011;11630;42.660;23.292;2024-03-08T04:20:54;1.60;;;1.50;;
22929;SDS011;11630;42.660;23.292;2024-03-08T04:23:25;1.87;;;1.77;;
22929;SDS011;11630;42.660;23.292;2024-03-08T04:25:56;2.17;;;1.80;;
22929;SDS011;11630;42.660;23.292;2024-03-08T04:28:27;1.60;;;1.50;;
22929;SDS011;11630;42.660;23.292;2024-03-08T04:30:58;1.77;;;1.67;;
22929;SDS011;11630;42.660;23.292;2024-03-08T04:33:28;1.87;;;1.77;;
22929;SDS011;11630;42.660;23.292;2024-03-08T04:35:58;3.03;;;2.03;;
22929;SDS011;11630;42.660;23.292;2024-03-08T04:38:30;1.77;;;1.63;;
22929;SDS011;11630;42.660;23.292;2024-03-08T04:41:01;1.80;;;1.70;;
22929;SDS011;11630;42.660;23.292;2024-03-08T04:43:32;2.97;;;1.60;;
22929;SDS011;11630;42.660;23.292;2024-03-08T04:46:05;2.20;;;2.00;;
22929;SDS011;11630;42.660;23.292;2024-03-08T04:48:35;2.33;;;2.13;;
22929;SDS011;11630;42.660;23.292;2024-03-08T04:51:05;2.20;;;2.00;;
22929;SDS011;11630;42.660;23.292;2024-03-08T04:53:36;4.27;;;2.07;;
22929;SDS011;11630;42.660;23.292;2024-03-08T04:56:06;2.90;;;2.70;;
22929;SDS011;11630;42.660;23.292;2024-03-08T04:58:37;3.13;;;2.93;;
22929;SDS011;11630;42.660;23.292;2024-03-08T05:01:08;3.17;;;2.87;;
22929;SDS011;11630;42.660;23.292;2024-03-08T05:03:39;5.03;;;3.37;;
22929;SDS011;11630;42.660;23.292;2024-03-08T05:06:10;2.97;;;2.73;;
22929;SDS011;11630;42.660;23.292;2024-03-08T05:08:41;3.30;;;3.10;;
22929;SDS011;11630;42.660;23.292;2024-03-08T05:11:11;3.30;;;3.00;;
22929;SDS011;11630;42.660;23.292;2024-03-08T05:13:45;3.10;;;2.80;;
22929;SDS011;11630;42.660;23.292;2024-03-08T05:16:16;4.37;;;3.00;;
22929;SDS011;11630;42.660;23.292;2024-03-08T05:18:47;3.53;;;3.13;;
22929;SDS011;11630;42.660;23.292;2024-03-08T05:21:17;4.90;;;3.60;;
22929;SDS011;11630;42.660;23.292;2024-03-08T05:23:47;5.30;;;4.07;;
22929;SDS011;11630;42.660;23.292;2024-03-08T05:26:18;3.20;;;3.00;;
22929;SDS011;11630;42.660;23.292;2024-03-08T05:28:49;5.97;;;3.27;;
22929;SDS011;11630;42.660;23.292;2024-03-08T05:31:20;4.87;;;3.30;;
22929;SDS011;11630;42.660;23.292;2024-03-08T05:33:51;5.03;;;3.53;;
22929;SDS011;11630;42.660;23.292;2024-03-08T05:36:21;4.73;;;3.90;;
22929;SDS011;11630;42.660;23.292;2024-03-08T05:38:52;5.50;;;3.83;;
22929;SDS011;11630;42.660;23.292;2024-03-08T05:41:23;5.03;;;4.10;;
22929;SDS011;11630;42.660;23.292;2024-03-08T05:43:54;4.23;;;3.77;;
22929;SDS011;11630;42.660;23.292;2024-03-08T05:46:25;4.93;;;4.20;;
22929;SDS011;11630;42.660;23.292;2024-03-08T05:48:56;5.40;;;3.97;;
22929;SDS011;11630;42.660;23.292;2024-03-08T05:51:26;5.00;;;4.40;;
22929;SDS011;11630;42.660;23.292;2024-03-08T05:53:56;5.17;;;4.60;;
22929;SDS011;11630;42.660;23.292;2024-03-08T05:56:27;5.33;;;4.83;;
22929;SDS011;11630;42.660;23.292;2024-03-08T05:58:58;6.43;;;5.10;;
22929;SDS011;11630;42.660;23.292;2024-03-08T06:01:28;6.73;;;5.17;;
22929;SDS011;11630;42.660;23.292;2024-03-08T06:04:00;6.77;;;5.10;;
22929;SDS011;11630;42.660;23.292;2024-03-08T06:06:31;5.20;;;4.70;;
22929;SDS011;11630;42.660;23.292;2024-03-08T06:09:02;8.90;;;5.20;;
22929;SDS011;11630;42.660;23.292;2024-03-08T06:11:33;7.13;;;5.33;;
22929;SDS011;11630;42.660;23.292;2024-03-08T06:14:04;7.67;;;5.33;;
22929;SDS011;11630;42.660;23.292;2024-03-08T06:16:38;8.43;;;6.40;;
22929;SDS011;11630;42.660;23.292;2024-03-08T06:19:09;6.77;;;5.80;;
22929;SDS011;11630;42.660;23.292;2024-03-08T06:21:39;9.27;;;5.93;;
22929;SDS011;11630;42.660;23.292;2024-03-08T06:24:14;8.60;;;6.33;;
22929;SDS011;11630;42.660;23.292;2024-03-08T06:26:46;13.33;;;6.80;;
22929;SDS011;11630;42.660;23.292;2024-03-08T06:29:16;9.50;;;6.50;;
22929;SDS011;11630;42.660;23.292;2024-03-08T06:31:48;9.40;;;6.90;;
22929;SDS011;11630;42.660;23.292;2024-03-08T06:34:19;8.10;;;6.40;;
22929;SDS011;11630;42.660;23.292;2024-03-08T06:36:49;10.07;;;7.67;;
22929;SDS011;11630;42.660;23.292;2024-03-08T06:39:20;10.40;;;7.20;;
22929;SDS011;11630;42.660;23.292;2024-03-08T06:41:53;10.97;;;8.00;;
22929;SDS011;11630;42.660;23.292;2024-03-08T06:44:25;11.27;;;7.80;;
22929;SDS011;11630;42.660;23.292;2024-03-08T06:46:55;10.33;;;7.80;;
22929;SDS011;11630;42.660;23.292;2024-03-08T06:49:25;12.70;;;7.67;;
22929;SDS011;11630;42.660;23.292;2024-03-08T06:51:56;9.47;;;7.30;;
22929;SDS011;11630;42.660;23.292;2024-03-08T06:54:27;9.80;;;7.90;;
22929;SDS011;11630;42.660;23.292;2024-03-08T06:56:58;13.07;;;8.23;;
22929;SDS011;11630;42.660;23.292;2024-03-08T06:59:29;11.67;;;8.70;;
22929;SDS011;11630;42.660;23.292;2024-03-08T07:02:01;9.20;;;7.90;;
22929;SDS011;11630;42.660;23.292;2024-03-08T07:04:32;12.40;;;8.27;;
22929;SDS011;11630;42.660;23.292;2024-03-08T07:07:06;11.50;;;7.57;;
22929;SDS011;11630;42.660;23.292;2024-03-08T07:09:37;10.63;;;7.83;;
22929;SDS011;11630;42.660;23.292;2024-03-08T07:12:07;12.20;;;8.83;;
22929;SDS011;11630;42.660;23.292;2024-03-08T07:14:38;16.63;;;8.53;;
22929;SDS011;11630;42.660;23.292;2024-03-08T07:17:10;12.20;;;8.53;;
22929;SDS011;11630;42.660;23.292;2024-03-08T07:19:41;11.07;;;8.23;;
22929;SDS011;11630;42.660;23.292;2024-03-08T07:22:12;8.30;;;7.00;;
22929;SDS011;11630;42.660;23.292;2024-03-08T07:24:43;8.73;;;6.13;;
22929;SDS011;11630;42.660;23.292;2024-03-08T07:27:14;6.40;;;5.80;;
22929;SDS011;11630;42.660;23.292;2024-03-08T07:29:46;9.97;;;5.87;;
22929;SDS011;11630;42.660;23.292;2024-03-08T07:32:17;6.77;;;6.00;;
22929;SDS011;11630;42.660;23.292;2024-03-08T07:34:51;10.30;;;5.07;;
22929;SDS011;11630;42.660;23.292;2024-03-08T07:37:21;7.43;;;5.63;;
22929;SDS011;11630;42.660;23.292;2024-03-08T07:39:51;8.10;;;5.27;;
22929;SDS011;11630;42.660;23.292;2024-03-08T07:42:22;7.27;;;4.77;;
22929;SDS011;11630;42.660;23.292;2024-03-08T07:44:53;11.43;;;5.90;;
22929;SDS011;11630;42.660;23.292;2024-03-08T07:47:24;8.13;;;5.13;;
22929;SDS011;11630;42.660;23.292;2024-03-08T07:49:57;6.27;;;4.87;;
22929;SDS011;11630;42.660;23.292;2024-03-08T07:52:28;6.40;;;5.17;;
22929;SDS011;11630;42.660;23.292;2024-03-08T07:54:59;6.17;;;5.03;;
22929;SDS011;11630;42.660;23.292;2024-03-08T07:57:29;6.70;;;5.53;;
22929;SDS011;11630;42.660;23.292;2024-03-08T08:00:01;6.03;;;5.07;;
22929;SDS011;11630;42.660;23.292;2024-03-08T08:02:33;7.43;;;6.17;;
22929;SDS011;11630;42.660;23.292;2024-03-08T08:05:05;7.33;;;5.33;;
22929;SDS011;11630;42.660;23.292;2024-03-08T08:07:35;7.97;;;6.13;;
22929;SDS011;11630;42.660;23.292;2024-03-08T08:10:07;5.97;;;5.30;;
22929;SDS011;11630;42.660;23.292;2024-03-08T08:12:38;9.27;;;5.07;;
22929;SDS011;11630;42.660;23.292;2024-03-08T08:15:09;10.73;;;5.80;;
22929;SDS011;11630;42.660;23.292;2024-03-08T08:17:39;9.63;;;6.17;;
22929;SDS011;11630;42.660;23.292;2024-03-08T08:20:11;11.10;;;6.77;;
22929;SDS011;11630;42.660;23.292;2024-03-08T08:22:42;7.93;;;6.00;;
22929;SDS011;11630;42.660;23.292;2024-03-08T08:25:13;7.03;;;6.13;;
22929;SDS011;11630;42.660;23.292;2024-03-08T08:27:44;7.00;;;6.30;;
22929;SDS011;11630;42.660;23.292;2024-03-08T08:30:14;7.83;;;6.00;;
22929;SDS011;11630;42.660;23.292;2024-03-08T08:32:44;8.00;;;5.97;;
22929;SDS011;11630;42.660;23.292;2024-03-08T08:35:13;8.57;;;7.07;;
22929;SDS011;11630;42.660;23.292;2024-03-08T08:37:43;7.60;;;6.40;;
22929;SDS011;11630;42.660;23.292;2024-03-08T08:40:14;7.87;;;6.70;;
22929;SDS011;11630;42.660;23.292;2024-03-08T08:42:45;10.20;;;6.27;;
22929;SDS011;11630;42.660;23.292;2024-03-08T08:45:16;7.47;;;6.57;;
22929;SDS011;11630;42.660;23.292;2024-03-08T08:47:45;7.97;;;6.53;;
22929;SDS011;11630;42.660;23.292;2024-03-08T08:50:16;9.00;;;6.77;;
22929;SDS011;11630;42.660;23.292;2024-03-08T08:52:47;7.43;;;6.60;;
22929;SDS011;11630;42.660;23.292;2024-03-08T08:55:18;9.30;;;6.13;;
22929;SDS011;11630;42.660;23.292;2024-03-08T08:57:48;8.53;;;6.17;;
22929;SDS011;11630;42.660;23.292;2024-03-08T09:00:20;9.57;;;6.40;;
22929;SDS011;11630;42.660;23.292;2024-03-08T09:02:51;8.20;;;7.07;;
22929;SDS011;11630;42.660;23.292;2024-03-08T09:05:28;7.37;;;6.63;;
22929;SDS011;11630;42.660;23.292;2024-03-08T09:07:53;11.10;;;6.63;;
22929;SDS011;11630;42.660;23.292;2024-03-08T09:10:23;9.30;;;7.10;;
22929;SDS011;11630;42.660;23.292;2024-03-08T09:12:54;7.17;;;5.10;;
22929;SDS011;11630;42.660;23.292;2024-03-08T09:15:24;4.70;;;4.13;;
22929;SDS011;11630;42.660;23.292;2024-03-08T09:17:55;9.63;;;4.83;;
22929;SDS011;11630;42.660;23.292;2024-03-08T09:20:26;6.87;;;5.40;;
22929;SDS011;11630;42.660;23.292;2024-03-08T09:22:57;6.83;;;5.13;;
22929;SDS011;11630;42.660;23.292;2024-03-08T09:25:28;5.53;;;4.93;;
22929;SDS011;11630;42.660;23.292;2024-03-08T09:27:58;7.20;;;4.67;;
22929;SDS011;11630;42.660;23.292;2024-03-08T09:30:27;5.83;;;5.03;;
22929;SDS011;11630;42.660;23.292;2024-03-08T09:32:58;6.10;;;5.47;;
22929;SDS011;11630;42.660;23.292;2024-03-08T09:35:29;6.20;;;5.50;;
22929;SDS011;11630;42.660;23.292;2024-03-08T09:38:01;8.03;;;5.27;;
22929;SDS011;11630;42.660;23.292;2024-03-08T09:40:32;6.57;;;4.80;;
22929;SDS011;11630;42.660;23.292;2024-03-08T09:43:03;5.63;;;4.97;;
22929;SDS011;11630;42.660;23.292;2024-03-08T09:45:36;5.37;;;4.57;;
22929;SDS011;11630;42.660;23.292;2024-03-08T09:48:11;6.47;;;4.20;;
22929;SDS011;11630;42.660;23.292;2024-03-08T09:50:42;4.70;;;4.30;;
22929;SDS011;11630;42.660;23.292;2024-03-08T09:53:13;7.97;;;4.30;;
22929;SDS011;11630;42.660;23.292;2024-03-08T09:55:44;6.87;;;4.13;;
22929;SDS011;11630;42.660;23.292;2024-03-08T09:58:15;5.20;;;3.57;;
22929;SDS011;11630;42.660;23.292;2024-03-08T10:01:00;3.70;;;3.40;;
22929;SDS011;11630;42.660;23.292;2024-03-08T10:03:31;3.90;;;3.30;;
22929;SDS011;11630;42.660;23.292;2024-03-08T10:06:03;6.00;;;3.10;;
22929;SDS011;11630;42.660;23.292;2024-03-08T10:08:35;3.73;;;3.40;;
22929;SDS011;11630;42.660;23.292;2024-03-08T10:11:05;3.00;;;2.63;;
22929;SDS011;11630;42.660;23.292;2024-03-08T10:13:37;2.97;;;2.67;;
22929;SDS011;11630;42.660;23.292;2024-03-08T10:16:08;4.80;;;2.70;;
22929;SDS011;11630;42.660;23.292;2024-03-08T10:18:39;4.70;;;3.00;;
22929;SDS011;11630;42.660;23.292;2024-03-08T10:21:10;8.47;;;3.33;;
22929;SDS011;11630;42.660;23.292;2024-03-08T10:23:40;2.80;;;2.60;;
22929;SDS011;11630;42.660;23.292;2024-03-08T10:26:14;4.67;;;3.63;;
22929;SDS011;11630;42.660;23.292;2024-03-08T10:28:46;7.60;;;3.70;;
22929;SDS011;11630;42.660;23.292;2024-03-08T10:31:18;7.53;;;4.10;;
22929;SDS011;11630;42.660;23.292;2024-03-08T10:33:50;4.40;;;3.47;;
22929;SDS011;11630;42.660;23.292;2024-03-08T10:36:20;4.00;;;3.30;;
22929;SDS011;11630;42.660;23.292;2024-03-08T10:38:52;3.80;;;3.50;;
22929;SDS011;11630;42.660;23.292;2024-03-08T10:41:23;7.97;;;4.30;;
22929;SDS011;11630;42.660;23.292;2024-03-08T10:44:07;3.57;;;3.27;;
22929;SDS011;11630;42.660;23.292;2024-03-08T10:46:42;4.10;;;3.70;;
22929;SDS011;11630;42.660;23.292;2024-03-08T10:49:17;3.40;;;3.10;;
22929;SDS011;11630;42.660;23.292;2024-03-08T10:51:48;5.40;;;3.30;;
22929;SDS011;11630;42.660;23.292;2024-03-08T10:54:19;3.07;;;2.73;;
22929;SDS011;11630;42.660;23.292;2024-03-08T10:56:51;3.50;;;3.20;;
22929;SDS011;11630;42.660;23.292;2024-03-08T10:59:22;3.77;;;3.40;;
22929;SDS011;11630;42.660;23.292;2024-03-08T11:01:53;4.83;;;3.67;;
22929;SDS011;11630;42.660;23.292;2024-03-08T11:04:24;3.83;;;3.00;;
22929;SDS011;11630;42.660;23.292;2024-03-08T11:07:05;6.07;;;3.00;;
22929;SDS011;11630;42.660;23.292;2024-03-08T11:09:31;6.07;;;3.27;;
22929;SDS011;11630;42.660;23.292;2024-03-08T11:14:54;7.30;;;3.17;;
22929;SDS011;11630;42.660;23.292;2024-03-08T11:17:47;6.87;;;2.70;;
22929;SDS011;11630;42.660;23.292;2024-03-08T11:19:58;2.57;;;2.37;;
22929;SDS011;11630;42.660;23.292;2024-03-08T11:22:28;3.00;;;2.60;;
22929;SDS011;11630;42.660;23.292;2024-03-08T11:25:03;4.20;;;2.80;;
22929;SDS011;11630;42.660;23.292;2024-03-08T11:27:35;3.63;;;2.80;;
22929;SDS011;11630;42.660;23.292;2024-03-08T11:30:05;5.70;;;3.57;;
22929;SDS011;11630;42.660;23.292;2024-03-08T11:32:38;3.07;;;2.80;;
22929;SDS011;11630;42.660;23.292;2024-03-08T11:35:17;8.97;;;3.93;;
22929;SDS011;11630;42.660;23.292;2024-03-08T11:37:50;2.53;;;2.33;;
22929;SDS011;11630;42.660;23.292;2024-03-08T11:40:20;4.63;;;2.90;;
22929;SDS011;11630;42.660;23.292;2024-03-08T11:42:52;2.90;;;2.57;;
22929;SDS011;11630;42.660;23.292;2024-03-08T11:45:25;2.57;;;2.37;;
22929;SDS011;11630;42.660;23.292;2024-03-08T11:47:55;3.33;;;2.80;;
22929;SDS011;11630;42.660;23.292;2024-03-08T11:50:26;5.40;;;2.40;;
22929;SDS011;11630;42.660;23.292;2024-03-08T11:53:00;4.97;;;2.70;;
22929;SDS011;11630;42.660;23.292;2024-03-08T11:55:31;3.47;;;3.03;;
22929;SDS011;11630;42.660;23.292;2024-03-08T11:58:03;8.30;;;2.47;;
22929;SDS011;11630;42.660;23.292;2024-03-08T12:00:34;2.93;;;2.70;;
22929;SDS011;11630;42.660;23.292;2024-03-08T12:03:05;5.50;;;2.90;;
22929;SDS011;11630;42.660;23.292;2024-03-08T12:05:37;3.77;;;2.80;;
22929;SDS011;11630;42.660;23.292;2024-03-08T12:08:08;3.20;;;3.00;;
22929;SDS011;11630;42.660;23.292;2024-03-08T12:10:40;2.63;;;2.43;;
22929;SDS011;11630;42.660;23.292;2024-03-08T12:13:10;3.43;;;2.67;;
22929;SDS011;11630;42.660;23.292;2024-03-08T12:15:41;4.17;;;2.50;;
22929;SDS011;11630;42.660;23.292;2024-03-08T12:18:12;2.30;;;2.10;;
22929;SDS011;11630;42.660;23.292;2024-03-08T12:20:43;3.93;;;2.27;;
22929;SDS011;11630;42.660;23.292;2024-03-08T12:23:14;3.20;;;2.03;;
22929;SDS011;11630;42.660;23.292;2024-03-08T12:25:45;4.07;;;2.37;;
22929;SDS011;11630;42.660;23.292;2024-03-08T12:28:16;2.40;;;2.10;;
22929;SDS011;11630;42.660;23.292;2024-03-08T12:30:48;5.37;;;2.50;;
22929;SDS011;11630;42.660;23.292;2024-03-08T12:33:23;3.10;;;2.73;;
22929;SDS011;11630;42.660;23.292;2024-03-08T12:35:54;2.47;;;1.90;;
22929;SDS011;11630;42.660;23.292;2024-03-08T12:38:28;9.00;;;2.13;;
22929;SDS011;11630;42.660;23.292;2024-03-08T12:41:00;7.53;;;2.60;;
22929;SDS011;11630;42.660;23.292;2024-03-08T12:43:31;2.10;;;2.00;;
22929;SDS011;11630;42.660;23.292;2024-03-08T12:46:02;2.30;;;2.13;;
22929;SDS011;11630;42.660;23.292;2024-03-08T12:48:36;2.30;;;2.10;;
22929;SDS011;11630;42.660;23.292;2024-03-08T12:51:07;2.17;;;1.97;;
22929;SDS011;11630;42.660;23.292;2024-03-08T12:53:37;2.50;;;2.30;;
22929;SDS011;11630;42.660;23.292;2024-03-08T12:56:07;2.23;;;2.00;;
22929;SDS011;11630;42.660;23.292;2024-03-08T12:58:37;2.73;;;2.33;;
22929;SDS011;11630;42.660;23.292;2024-03-08T13:01:08;2.03;;;1.90;;
22929;SDS011;11630;42.660;23.292;2024-03-08T13:03:38;4.77;;;2.40;;
22929;SDS011;11630;42.660;23.292;2024-03-08T13:06:09;5.10;;;2.57;;
22929;SDS011;11630;42.660;23.292;2024-03-08T13:08:41;3.70;;;2.70;;
22929;SDS011;11630;42.660;23.292;2024-03-08T13:11:11;4.57;;;2.30;;
22929;SDS011;11630;42.660;23.292;2024-03-08T13:13:41;2.77;;;2.43;;
22929;SDS011;11630;42.660;23.292;2024-03-08T13:16:12;3.90;;;2.07;;
22929;SDS011;11630;42.660;23.292;2024-03-08T13:18:43;2.37;;;2.17;;
22929;SDS011;11630;42.660;23.292;2024-03-08T13:21:15;12.53;;;2.57;;
22929;SDS011;11630;42.660;23.292;2024-03-08T13:23:46;3.37;;;2.33;;
22929;SDS011;11630;42.660;23.292;2024-03-08T13:26:17;2.77;;;2.30;;
22929;SDS011;11630;42.660;23.292;2024-03-08T13:28:48;2.53;;;2.20;;
22929;SDS011;11630;42.660;23.292;2024-03-08T13:31:18;6.63;;;2.33;;
22929;SDS011;11630;42.660;23.292;2024-03-08T13:33:49;4.57;;;2.27;;
22929;SDS011;11630;42.660;23.292;2024-03-08T13:36:20;3.20;;;1.93;;
22929;SDS011;11630;42.660;23.292;2024-03-08T13:38:51;4.97;;;2.33;;
22929;SDS011;11630;42.660;23.292;2024-03-08T13:41:21;2.00;;;1.90;;
22929;SDS011;11630;42.660;23.292;2024-03-08T13:43:52;7.17;;;2.47;;
22929;SDS011;11630;42.660;23.292;2024-03-08T13:46:26;2.23;;;2.07;;
22929;SDS011;11630;42.660;23.292;2024-03-08T13:48:57;6.17;;;2.37;;
22929;SDS011;11630;42.660;23.292;2024-03-08T13:51:34;2.97;;;2.20;;
22929;SDS011;11630;42.660;23.292;2024-03-08T13:54:04;3.03;;;2.20;;
22929;SDS011;11630;42.660;23.292;2024-03-08T13:56:34;2.23;;;2.03;;
22929;SDS011;11630;42.660;23.292;2024-03-08T13:59:05;2.10;;;1.97;;
22929;SDS011;11630;42.660;23.292;2024-03-08T14:01:36;10.07;;;2.30;;
22929;SDS011;11630;42.660;23.292;2024-03-08T14:04:07;3.07;;;2.10;;
22929;SDS011;11630;42.660;23.292;2024-03-08T14:06:37;2.00;;;1.90;;
22929;SDS011;11630;42.660;23.292;2024-03-08T14:09:08;2.00;;;1.80;;
22929;SDS011;11630;42.660;23.292;2024-03-08T14:11:45;7.40;;;2.63;;
22929;SDS011;11630;42.660;23.292;2024-03-08T14:14:23;2.30;;;2.10;;
22929;SDS011;11630;42.660;23.292;2024-03-08T14:16:54;3.93;;;2.50;;
22929;SDS011;11630;42.660;23.292;2024-03-08T14:19:24;6.77;;;2.37;;
22929;SDS011;11630;42.660;23.292;2024-03-08T14:21:55;2.50;;;2.30;;
22929;SDS011;11630;42.660;23.292;2024-03-08T14:24:26;5.37;;;2.70;;
22929;SDS011;11630;42.660;23.292;2024-03-08T14:26:57;2.77;;;2.50;;
22929;SDS011;11630;42.660;23.292;2024-03-08T14:29:27;3.37;;;2.57;;
22929;SDS011;11630;42.660;23.292;2024-03-08T14:31:59;3.10;;;2.17;;
22929;SDS011;11630;42.660;23.292;2024-03-08T14:34:29;2.70;;;2.50;;
22929;SDS011;11630;42.660;23.292;2024-03-08T14:37:00;3.00;;;2.80;;
22929;SDS011;11630;42.660;23.292;2024-03-08T14:39:30;2.93;;;2.50;;
22929;SDS011;11630;42.660;23.292;2024-03-08T14:42:01;7.70;;;2.50;;
22929;SDS011;11630;42.660;23.292;2024-03-08T14:44:31;7.27;;;2.37;;
22929;SDS011;11630;42.660;23.292;2024-03-08T14:47:02;5.83;;;3.00;;
22929;SDS011;11630;42.660;23.292;2024-03-08T14:49:34;6.67;;;3.63;;
22929;SDS011;11630;42.660;23.292;2024-03-08T14:52:05;5.33;;;3.20;;
22929;SDS011;11630;42.660;23.292;2024-03-08T14:54:36;6.03;;;3.17;;
22929;SDS011;11630;42.660;23.292;2024-03-08T14:57:07;4.00;;;3.40;;
22929;SDS011;11630;42.660;23.292;2024-03-08T14:59:38;10.33;;;3.33;;